Time;durP1;ratioP1;P1;durP2;ratioP2;P2;SDS_P1;SDS_P2;PMS_P1;PMS_P2;Temp;Humidity;BMP_temperature;BMP_pressure;BME280_temperature;BME280_humidity;BME280_pressure;Samples;Min_cycle;Max_cycle;Signal;HPM_P1;HPM_P2
2023/02/21 02:15:10;;;;;;;;;;;7.20;99.90;;;;;;4898802;29;19935;-65
2023/02/21 02:17:52;;;;;;;;;;;7.00;99.90;;;;;;4901738;29;19928;-65
2023/02/21 02:20:27;;;;;;;;;;;6.80;99.90;;;;;;4899253;29;20416;-64
2023/02/21 02:22:59;;;;;;;;;;;6.60;99.90;;;;;;4903010;29;19931;-65
2023/02/21 02:25:39;;;;;;;;;;;6.50;99.90;;;;;;4895033;29;19962;-64
2023/02/21 02:28:12;;;;;;;;;;;6.50;99.90;;;;;;4907783;29;19931;-65
2023/02/21 02:30:51;;;;;;;;;;;6.30;99.90;;;;;;4886913;29;19927;-65
2023/02/21 02:33:23;;;;;;;;;;;6.20;99.90;;;;;;4901909;29;19931;-64
2023/02/21 02:36:13;;;;;;;;;;;6.10;99.90;;;;;;4886720;29;19932;-64
2023/02/21 02:38:51;;;;;;;;;;;6.00;99.90;;;;;;4897547;29;19935;-64
2023/02/21 02:41:29;;;;;;;;;;;5.90;99.90;;;;;;4912505;29;20460;-65
2023/02/21 02:44:08;;;;;;;;;;;5.80;99.90;;;;;;4897429;29;19934;-64
2023/02/21 02:46:37;;;;;;;;;;;5.70;99.90;;;;;;4895477;29;20551;-64
2023/02/21 02:49:15;;;;;;;;;;;5.60;99.90;;;;;;4904191;29;19935;-64
2023/02/21 02:51:47;;;;;;;;;;;5.60;99.90;;;;;;4905671;29;19927;-64
2023/02/21 02:54:21;;;;;;;;;;;5.50;99.90;;;;;;4897069;29;20434;-64
2023/02/21 02:56:52;;;;;;;;;;;5.50;99.90;;;;;;4904132;29;19932;-65
2023/02/21 02:59:27;;;;;;;;;;;5.40;99.90;;;;;;4895260;29;20388;-65
2023/02/21 03:02:09;;;;;;;;;;;5.40;99.90;;;;;;4878164;29;19982;-65
2023/02/21 03:05:00;;;;;;;;;;;5.30;99.90;;;;;;4903775;29;20038;-65
2023/02/21 03:07:42;;;;;;;;;;;5.20;99.90;;;;;;4900716;29;19941;-65
2023/02/21 03:10:14;;;;;;;;;;;5.20;99.90;;;;;;4886876;29;19938;-65
2023/02/21 03:13:13;;;;;;;;;;;5.10;99.90;;;;;;4895015;29;19931;-65
2023/02/21 03:15:44;;;;;;;;;;;5.00;99.90;;;;;;4895870;29;20031;-64
2023/02/21 03:18:19;;;;;;;;;;;5.00;99.90;;;;;;4894243;29;20430;-64
2023/02/21 03:20:48;;;;;;;;;;;5.00;99.90;;;;;;4897603;29;19928;-65
2023/02/21 03:23:20;;;;;;;;;;;4.90;99.90;;;;;;4905353;29;20014;-64
2023/02/21 03:25:53;;;;;;;;;;;4.90;99.90;;;;;;4899697;29;20289;-64
2023/02/21 03:28:21;;;;;;;;;;;4.90;99.90;;;;;;4903354;29;20404;-64
2023/02/21 03:30:55;;;;;;;;;;;4.80;99.90;;;;;;4900002;29;19931;-65
2023/02/21 03:33:22;;;;;;;;;;;4.80;99.90;;;;;;4883351;29;19975;-65
2023/02/21 03:35:57;;;;;;;;;;;4.80;99.90;;;;;;4906463;29;19935;-65
2023/02/21 03:38:29;;;;;;;;;;;4.70;99.90;;;;;;4901073;29;19927;-65
2023/02/21 03:41:01;;;;;;;;;;;4.70;99.90;;;;;;4881371;29;19932;-65
2023/02/21 03:43:29;;;;;;;;;;;4.70;99.90;;;;;;4886675;29;19927;-65
2023/02/21 03:46:02;;;;;;;;;;;4.70;99.90;;;;;;4898466;29;19962;-64
2023/02/21 03:48:34;;;;;;;;;;;4.60;99.90;;;;;;4915569;29;20420;-64
2023/02/21 03:51:14;;;;;;;;;;;4.60;99.90;;;;;;4901868;29;19934;-63
2023/02/21 03:53:46;;;;;;;;;;;4.50;99.90;;;;;;4904966;29;19928;-64
2023/02/21 03:56:19;;;;;;;;;;;4.40;99.90;;;;;;4902559;29;19938;-64
2023/02/21 03:59:02;;;;;;;;;;;4.40;99.90;;;;;;4906460;29;20035;-64
2023/02/21 04:01:33;;;;;;;;;;;4.40;99.90;;;;;;4884531;29;20396;-64
2023/02/21 04:04:05;;;;;;;;;;;4.30;99.90;;;;;;4896256;29;19935;-63
2023/02/21 04:06:37;;;;;;;;;;;4.30;99.90;;;;;;4876173;29;19975;-67
2023/02/21 04:09:11;;;;;;;;;;;4.30;99.90;;;;;;4875692;29;19932;-65
2023/02/21 04:11:43;;;;;;;;;;;4.20;99.90;;;;;;4899110;29;19934;-63
2023/02/21 04:14:15;;;;;;;;;;;4.20;99.90;;;;;;4894159;29;19934;-63
2023/02/21 04:16:47;;;;;;;;;;;4.20;99.90;;;;;;4876795;29;19928;-63
2023/02/21 04:19:19;;;;;;;;;;;4.20;99.90;;;;;;4900042;29;19934;-64
2023/02/21 04:21:50;;;;;;;;;;;4.50;99.90;;;;;;4902003;29;19932;-63
2023/02/21 04:24:22;;;;;;;;;;;4.80;99.90;;;;;;4893919;29;19928;-63
2023/02/21 04:26:54;;;;;;;;;;;5.00;99.90;;;;;;4891259;29;19932;-64
2023/02/21 04:29:28;;;;;;;;;;;5.20;99.90;;;;;;4908323;29;19978;-64
2023/02/21 04:31:55;;;;;;;;;;;5.20;99.90;;;;;;4882319;29;20431;-64
2023/02/21 04:34:26;;;;;;;;;;;5.00;99.90;;;;;;4898280;29;19931;-64
2023/02/21 04:36:58;;;;;;;;;;;4.80;99.90;;;;;;4902628;29;19946;-64
2023/02/21 04:39:31;;;;;;;;;;;4.60;99.90;;;;;;4902083;29;19983;-63
2023/02/21 04:42:02;;;;;;;;;;;4.40;99.90;;;;;;4902466;29;19931;-64
2023/02/21 04:44:34;;;;;;;;;;;4.20;99.90;;;;;;4905431;29;19927;-64
2023/02/21 04:47:08;;;;;;;;;;;4.10;99.90;;;;;;4900062;29;19928;-64
2023/02/21 04:49:40;;;;;;;;;;;3.90;99.90;;;;;;4901926;29;19935;-64
2023/02/21 04:52:11;;;;;;;;;;;3.80;99.90;;;;;;4904703;29;20464;-64
2023/02/21 04:54:38;;;;;;;;;;;3.70;99.90;;;;;;4910107;29;19936;-64
2023/02/21 04:57:10;;;;;;;;;;;3.60;99.90;;;;;;4907732;29;19928;-64
2023/02/21 04:59:36;;;;;;;;;;;3.60;99.90;;;;;;4907392;29;20452;-64
2023/02/21 05:02:08;;;;;;;;;;;3.50;99.90;;;;;;4906402;29;19986;-64
2023/02/21 05:04:41;;;;;;;;;;;3.50;99.90;;;;;;4901970;29;19928;-64
2023/02/21 05:07:13;;;;;;;;;;;3.50;99.90;;;;;;4906794;29;19927;-64
2023/02/21 05:09:40;;;;;;;;;;;3.50;99.90;;;;;;4905084;29;19958;-64
2023/02/21 05:12:12;;;;;;;;;;;3.40;99.90;;;;;;4897377;29;19928;-64
2023/02/21 05:14:44;;;;;;;;;;;3.40;99.90;;;;;;4904563;29;20382;-64
2023/02/21 05:17:15;;;;;;;;;;;3.50;99.90;;;;;;4900636;29;19931;-64
2023/02/21 05:19:42;;;;;;;;;;;3.50;99.90;;;;;;4907468;29;19931;-64
2023/02/21 05:22:19;;;;;;;;;;;3.60;99.90;;;;;;4894650;29;20304;-64
2023/02/21 05:24:50;;;;;;;;;;;3.60;99.90;;;;;;4908679;29;19951;-64
2023/02/21 05:27:22;;;;;;;;;;;3.50;99.90;;;;;;4898085;29;20377;-64
2023/02/21 05:29:49;;;;;;;;;;;3.40;99.90;;;;;;4905456;29;20397;-64
2023/02/21 05:32:17;;;;;;;;;;;3.40;99.90;;;;;;4894269;29;19931;-64
2023/02/21 05:34:49;;;;;;;;;;;3.30;99.90;;;;;;4899850;29;19927;-64
2023/02/21 05:37:20;;;;;;;;;;;3.10;99.90;;;;;;4906122;29;19927;-64
2023/02/21 05:39:52;;;;;;;;;;;3.10;99.90;;;;;;4901508;29;19928;-64
2023/02/21 05:42:19;;;;;;;;;;;3.10;99.90;;;;;;4913246;29;19931;-64
2023/02/21 05:44:51;;;;;;;;;;;3.10;99.90;;;;;;4902417;29;20452;-64
2023/02/21 05:47:23;;;;;;;;;;;3.10;99.90;;;;;;4903856;29;19932;-64
2023/02/21 05:49:49;;;;;;;;;;;3.00;99.90;;;;;;4894435;29;19934;-64
2023/02/21 05:52:16;;;;;;;;;;;3.00;99.90;;;;;;4904673;29;19926;-64
2023/02/21 05:54:43;;;;;;;;;;;3.00;99.90;;;;;;4903822;29;19938;-64
2023/02/21 05:57:15;;;;;;;;;;;3.00;99.90;;;;;;4898383;29;19986;-64
2023/02/21 05:59:47;;;;;;;;;;;3.00;99.90;;;;;;4907956;29;19934;-63
2023/02/21 06:02:18;;;;;;;;;;;3.00;99.90;;;;;;4901568;29;19931;-64
2023/02/21 06:04:50;;;;;;;;;;;3.00;99.90;;;;;;4902577;29;19975;-64
2023/02/21 06:07:22;;;;;;;;;;;3.00;99.90;;;;;;4900618;29;19931;-64
2023/02/21 06:09:53;;;;;;;;;;;3.00;99.90;;;;;;4906563;29;19928;-64
2023/02/21 06:12:25;;;;;;;;;;;3.00;99.90;;;;;;4904408;29;20470;-64
2023/02/21 06:14:57;;;;;;;;;;;3.00;99.90;;;;;;4912076;29;20397;-64
2023/02/21 06:17:29;;;;;;;;;;;3.00;99.90;;;;;;4900907;29;19938;-64
2023/02/21 06:20:00;;;;;;;;;;;3.00;99.90;;;;;;4900277;29;20393;-64
2023/02/21 06:22:32;;;;;;;;;;;3.00;99.90;;;;;;4902055;29;19927;-64
2023/02/21 06:25:04;;;;;;;;;;;3.10;99.90;;;;;;4902065;29;20330;-64
2023/02/21 06:27:36;;;;;;;;;;;3.10;99.90;;;;;;4895109;29;20401;-64
2023/02/21 06:30:08;;;;;;;;;;;3.20;99.90;;;;;;4901709;29;19931;-64
2023/02/21 06:32:41;;;;;;;;;;;3.20;99.90;;;;;;4907283;29;19927;-64
2023/02/21 06:35:12;;;;;;;;;;;3.20;99.90;;;;;;4895504;29;19931;-64
2023/02/21 06:37:44;;;;;;;;;;;3.20;99.90;;;;;;4899198;29;20435;-64
2023/02/21 06:40:16;;;;;;;;;;;3.20;99.90;;;;;;4899686;29;19928;-64
2023/02/21 06:42:47;;;;;;;;;;;3.20;99.90;;;;;;4907258;29;19928;-64
2023/02/21 06:45:14;;;;;;;;;;;3.20;99.90;;;;;;4905717;29;19928;-64
2023/02/21 06:47:46;;;;;;;;;;;3.20;99.90;;;;;;4902892;29;20416;-64
2023/02/21 06:50:18;;;;;;;;;;;3.10;99.90;;;;;;4893953;29;19927;-64
2023/02/21 06:52:50;;;;;;;;;;;3.10;99.90;;;;;;4904030;29;19983;-64
2023/02/21 06:55:22;;;;;;;;;;;3.00;99.90;;;;;;4901780;29;19935;-64
2023/02/21 06:57:54;;;;;;;;;;;3.00;99.90;;;;;;4894652;29;19982;-64
2023/02/21 07:00:26;;;;;;;;;;;2.90;99.90;;;;;;4902557;29;20397;-64
2023/02/21 07:03:00;;;;;;;;;;;3.00;99.90;;;;;;4898727;29;21139;-64
2023/02/21 07:05:36;;;;;;;;;;;3.00;99.90;;;;;;4896981;29;19935;-64
2023/02/21 07:08:03;;;;;;;;;;;3.20;99.90;;;;;;4889558;29;20408;-64
2023/02/21 07:10:35;;;;;;;;;;;3.30;99.90;;;;;;4902683;29;19934;-64
2023/02/21 07:13:06;;;;;;;;;;;3.30;99.90;;;;;;4897702;29;19932;-64
2023/02/21 07:15:38;;;;;;;;;;;3.40;99.90;;;;;;4899065;29;20049;-64
2023/02/21 07:18:04;;;;;;;;;;;3.50;99.90;;;;;;4904137;29;19951;-64
2023/02/21 07:20:36;;;;;;;;;;;3.50;99.90;;;;;;4901681;29;19931;-64
2023/02/21 07:23:03;;;;;;;;;;;3.60;99.90;;;;;;4901419;29;19939;-64
2023/02/21 07:25:35;;;;;;;;;;;3.60;99.90;;;;;;4899154;29;19927;-64
2023/02/21 07:28:06;;;;;;;;;;;3.60;99.90;;;;;;4911451;29;19986;-64
2023/02/21 07:30:34;;;;;;;;;;;3.70;99.90;;;;;;4901559;29;19966;-64
2023/02/21 07:33:06;;;;;;;;;;;3.70;99.90;;;;;;4903361;29;19927;-64
2023/02/21 07:35:37;;;;;;;;;;;3.70;99.90;;;;;;4902149;29;19931;-64
2023/02/21 07:38:09;;;;;;;;;;;3.70;99.90;;;;;;4900131;29;19998;-64
2023/02/21 07:40:41;;;;;;;;;;;3.70;99.90;;;;;;4904858;29;19927;-64
2023/02/21 07:43:13;;;;;;;;;;;3.70;99.90;;;;;;4893820;29;19938;-64
2023/02/21 07:45:44;;;;;;;;;;;3.70;99.90;;;;;;4897099;29;19928;-64
2023/02/21 07:48:16;;;;;;;;;;;3.80;99.90;;;;;;4901044;29;19934;-64
2023/02/21 07:50:48;;;;;;;;;;;3.80;99.90;;;;;;4896339;29;19928;-64
2023/02/21 07:53:20;;;;;;;;;;;3.90;99.90;;;;;;4906127;29;19975;-64
2023/02/21 07:55:52;;;;;;;;;;;3.90;99.90;;;;;;4903090;29;20373;-64
2023/02/21 07:58:25;;;;;;;;;;;4.00;99.90;;;;;;4904003;29;20037;-64
2023/02/21 08:00:56;;;;;;;;;;;4.10;99.90;;;;;;4896815;29;19928;-64
2023/02/21 08:03:23;;;;;;;;;;;4.20;99.90;;;;;;4903602;29;19935;-64
2023/02/21 08:05:55;;;;;;;;;;;4.20;99.90;;;;;;4893987;29;19963;-64
2023/02/21 08:08:27;;;;;;;;;;;4.30;99.90;;;;;;4909051;29;19927;-64
2023/02/21 08:10:58;;;;;;;;;;;4.40;99.90;;;;;;4900631;29;19983;-64
2023/02/21 08:13:30;;;;;;;;;;;4.50;99.90;;;;;;4895250;29;20389;-64
2023/02/21 08:16:02;;;;;;;;;;;4.60;99.90;;;;;;4894633;29;19931;-64
2023/02/21 08:18:34;;;;;;;;;;;4.60;99.90;;;;;;4896575;29;19931;-64
2023/02/21 08:21:08;;;;;;;;;;;4.70;99.90;;;;;;4893273;29;19934;-64
2023/02/21 08:23:34;;;;;;;;;;;4.80;99.90;;;;;;4903053;29;20400;-64
2023/02/21 08:26:07;;;;;;;;;;;4.90;99.90;;;;;;4903054;29;20393;-64
2023/02/21 08:28:39;;;;;;;;;;;5.00;99.90;;;;;;4905309;29;19949;-64
2023/02/21 08:31:06;;;;;;;;;;;5.10;99.90;;;;;;4903426;29;19931;-64
2023/02/21 08:33:38;;;;;;;;;;;5.20;99.90;;;;;;4903422;29;19966;-64
2023/02/21 08:36:09;;;;;;;;;;;5.30;99.90;;;;;;4904734;29;19950;-64
2023/02/21 08:38:41;;;;;;;;;;;5.40;99.90;;;;;;4909891;29;19954;-64
2023/02/21 08:41:14;;;;;;;;;;;5.50;99.90;;;;;;4903158;29;19928;-64
2023/02/21 08:43:46;;;;;;;;;;;5.50;99.90;;;;;;4906178;29;19939;-64
2023/02/21 08:46:18;;;;;;;;;;;5.70;99.90;;;;;;4901054;29;19927;-64
2023/02/21 08:48:50;;;;;;;;;;;5.80;99.90;;;;;;4902974;29;19938;-64
2023/02/21 08:51:25;;;;;;;;;;;6.00;99.90;;;;;;4897620;29;19943;-64
2023/02/21 08:53:57;;;;;;;;;;;6.20;99.90;;;;;;4910552;29;20048;-64
2023/02/21 08:56:29;;;;;;;;;;;6.40;99.90;;;;;;4891535;29;19928;-64
2023/02/21 08:59:02;;;;;;;;;;;6.60;99.90;;;;;;4900353;29;19932;-64
2023/02/21 09:01:34;;;;;;;;;;;6.70;99.90;;;;;;4902469;29;19927;-64
2023/02/21 09:04:06;;;;;;;;;;;6.80;99.90;;;;;;4891454;29;19946;-64
2023/02/21 09:06:38;;;;;;;;;;;7.00;99.90;;;;;;4905925;29;19927;-64
2023/02/21 09:09:09;;;;;;;;;;;7.10;99.90;;;;;;4899820;29;19986;-64
2023/02/21 09:11:45;;;;;;;;;;;7.20;99.90;;;;;;4901507;29;19931;-64
2023/02/21 09:14:17;;;;;;;;;;;7.30;99.90;;;;;;4907110;29;19927;-64
2023/02/21 09:16:49;;;;;;;;;;;7.40;99.90;;;;;;4901232;29;19942;-64
2023/02/21 09:19:20;;;;;;;;;;;7.50;99.90;;;;;;4902992;29;19932;-64
2023/02/21 09:21:55;;;;;;;;;;;7.60;99.90;;;;;;4900040;29;19931;-64
2023/02/21 09:24:27;;;;;;;;;;;7.70;99.90;;;;;;4898584;29;19928;-64
2023/02/21 09:27:02;;;;;;;;;;;7.90;99.90;;;;;;4905218;29;19935;-64
2023/02/21 09:29:35;;;;;;;;;;;8.00;99.90;;;;;;4892360;29;19931;-64
2023/02/21 09:32:06;;;;;;;;;;;8.20;99.90;;;;;;4900503;29;19938;-64
2023/02/21 09:34:38;;;;;;;;;;;8.30;99.90;;;;;;4903246;29;19931;-64
2023/02/21 09:37:10;;;;;;;;;;;8.60;99.90;;;;;;4897512;29;19927;-64
2023/02/21 09:39:38;;;;;;;;;;;8.90;99.90;;;;;;4902118;29;20298;-65
2023/02/21 09:42:13;;;;;;;;;;;9.10;99.90;;;;;;4902625;29;19927;-64
2023/02/21 09:44:45;;;;;;;;;;;9.30;99.90;;;;;;4896605;29;19928;-64
2023/02/21 09:47:25;;;;;;;;;;;9.50;99.90;;;;;;4898605;29;19931;-65
2023/02/21 09:49:56;;;;;;;;;;;9.70;99.90;;;;;;4905773;29;19983;-64
2023/02/21 09:52:41;;;;;;;;;;;9.90;99.90;;;;;;4897314;29;19939;-64
2023/02/21 09:55:11;;;;;;;;;;;10.00;99.90;;;;;;4900044;29;20400;-64
2023/02/21 09:57:43;;;;;;;;;;;10.10;99.90;;;;;;4904038;29;19931;-64
2023/02/21 10:00:16;;;;;;;;;;;10.20;99.90;;;;;;4901253;29;19938;-64
2023/02/21 10:02:48;;;;;;;;;;;10.30;99.90;;;;;;4905077;29;19938;-64
2023/02/21 10:05:32;;;;;;;;;;;10.30;99.90;;;;;;4902106;29;19932;-64
2023/02/21 10:08:08;;;;;;;;;;;10.40;99.90;;;;;;4899462;29;20438;-64
2023/02/21 10:10:47;;;;;;;;;;;10.50;99.90;;;;;;4896822;29;19934;-64
2023/02/21 10:13:39;;;;;;;;;;;10.60;99.90;;;;;;4917236;29;19927;-64
2023/02/21 10:16:14;;;;;;;;;;;10.60;99.90;;;;;;4895441;29;19999;-64
2023/02/21 10:18:50;;;;;;;;;;;10.70;99.90;;;;;;4901331;29;20418;-65
2023/02/21 10:21:36;;;;;;;;;;;10.80;99.90;;;;;;4899784;29;19938;-64
2023/02/21 10:24:10;;;;;;;;;;;10.90;99.90;;;;;;4898544;29;20404;-64
2023/02/21 10:26:47;;;;;;;;;;;11.00;99.90;;;;;;4903696;29;20014;-64
2023/02/21 10:29:21;;;;;;;;;;;11.10;99.90;;;;;;4905005;29;20245;-64
2023/02/21 10:31:56;;;;;;;;;;;11.20;99.90;;;;;;4902852;29;20405;-64
2023/02/21 10:34:28;;;;;;;;;;;11.20;99.90;;;;;;4904219;29;19931;-64
2023/02/21 10:37:12;;;;;;;;;;;11.30;99.90;;;;;;4897077;29;19943;-64
2023/02/21 10:39:48;;;;;;;;;;;11.30;99.90;;;;;;4894098;29;20368;-64
2023/02/21 10:42:25;;;;;;;;;;;11.40;99.90;;;;;;4916120;29;19934;-64
2023/02/21 10:44:57;;;;;;;;;;;11.50;99.90;;;;;;4898468;29;20424;-64
2023/02/21 10:47:38;;;;;;;;;;;11.60;99.90;;;;;;4898881;29;20452;-64
2023/02/21 10:50:11;;;;;;;;;;;11.70;99.90;;;;;;4901783;29;19931;-64
2023/02/21 10:52:47;;;;;;;;;;;11.80;99.90;;;;;;4908036;29;20101;-64
2023/02/21 10:55:22;;;;;;;;;;;11.80;99.90;;;;;;4893454;29;19935;-64
2023/02/21 10:57:55;;;;;;;;;;;12.00;99.90;;;;;;4904620;29;19931;-64
2023/02/21 11:00:33;;;;;;;;;;;12.00;99.90;;;;;;4886541;29;20394;-64
2023/02/21 11:03:17;;;;;;;;;;;12.10;99.90;;;;;;4887460;29;19928;-64
2023/02/21 11:05:56;;;;;;;;;;;12.20;99.90;;;;;;4899269;29;19927;-64
2023/02/21 11:08:34;;;;;;;;;;;12.20;99.90;;;;;;4900825;29;19938;-64
2023/02/21 11:11:06;;;;;;;;;;;12.40;99.90;;;;;;4911561;29;19934;-64
2023/02/21 11:13:38;;;;;;;;;;;12.40;99.90;;;;;;4892505;29;19945;-65
2023/02/21 11:16:15;;;;;;;;;;;12.50;99.90;;;;;;4906662;29;19928;-64
2023/02/21 11:19:02;;;;;;;;;;;12.60;99.90;;;;;;4908350;29;20017;-64
2023/02/21 11:21:34;;;;;;;;;;;12.70;99.90;;;;;;4906778;29;19938;-64
2023/02/21 11:24:06;;;;;;;;;;;12.80;99.90;;;;;;4892041;29;19983;-64
2023/02/21 11:26:47;;;;;;;;;;;12.80;99.90;;;;;;4899685;29;20017;-64
2023/02/21 11:29:24;;;;;;;;;;;12.90;99.90;;;;;;4899357;29;19932;-64
2023/02/21 11:31:56;;;;;;;;;;;13.00;99.90;;;;;;4895709;29;19927;-64
2023/02/21 11:34:28;;;;;;;;;;;13.00;99.90;;;;;;4905760;29;19931;-64
2023/02/21 11:37:01;;;;;;;;;;;13.10;99.90;;;;;;4904046;29;19931;-64
2023/02/21 11:39:31;;;;;;;;;;;13.10;99.90;;;;;;4903626;29;19932;-64
2023/02/21 11:42:05;;;;;;;;;;;13.20;99.90;;;;;;4896267;29;19939;-64
2023/02/21 11:44:38;;;;;;;;;;;13.20;99.90;;;;;;4901808;29;19928;-64
2023/02/21 11:47:20;;;;;;;;;;;13.40;99.90;;;;;;4889930;29;19932;-64
2023/02/21 11:50:13;;;;;;;;;;;13.40;99.90;;;;;;4898188;29;19931;-64
2023/02/21 11:52:48;;;;;;;;;;;13.40;99.90;;;;;;4908830;29;20463;-64
2023/02/21 11:55:16;;;;;;;;;;;13.50;99.90;;;;;;4902372;29;19935;-64
2023/02/21 11:57:51;;;;;;;;;;;13.50;99.90;;;;;;4904648;29;19938;-64
2023/02/21 12:00:41;;;;;;;;;;;13.60;99.90;;;;;;4889429;29;19927;-64
2023/02/21 12:03:16;;;;;;;;;;;13.70;99.90;;;;;;4900077;29;19927;-64
2023/02/21 12:06:06;;;;;;;;;;;13.70;99.90;;;;;;4900552;29;19931;-64
2023/02/21 12:08:42;;;;;;;;;;;13.80;99.90;;;;;;4897633;29;19931;-64
2023/02/21 12:11:26;;;;;;;;;;;13.80;99.90;;;;;;4894139;29;19931;-64
2023/02/21 12:13:55;;;;;;;;;;;13.90;99.90;;;;;;4898313;29;19934;-64
2023/02/21 12:16:29;;;;;;;;;;;14.10;99.90;;;;;;4898304;29;19960;-64
2023/02/21 12:19:10;;;;;;;;;;;14.10;99.90;;;;;;4903629;29;19975;-64
2023/02/21 12:21:37;;;;;;;;;;;14.20;99.90;;;;;;4903935;29;20320;-64
2023/02/21 12:24:20;;;;;;;;;;;14.20;99.90;;;;;;4902720;29;20417;-65
2023/02/21 12:26:52;;;;;;;;;;;14.30;99.90;;;;;;4899780;29;19986;-64
2023/02/21 12:29:20;;;;;;;;;;;14.50;99.90;;;;;;4903012;29;20412;-64
2023/02/21 12:31:55;;;;;;;;;;;14.40;99.90;;;;;;4893846;29;19931;-64
2023/02/21 12:34:21;;;;;;;;;;;14.50;99.90;;;;;;4896287;29;19928;-64
2023/02/21 12:37:14;;;;;;;;;;;14.60;99.90;;;;;;4900129;29;19927;-64
2023/02/21 12:39:49;;;;;;;;;;;14.70;99.90;;;;;;4898996;29;19934;-64
2023/02/21 12:42:40;;;;;;;;;;;14.80;99.90;;;;;;4898236;29;20149;-64
2023/02/21 12:45:26;;;;;;;;;;;14.80;99.90;;;;;;4917539;29;19927;-64
2023/02/21 12:48:06;;;;;;;;;;;14.90;99.90;;;;;;4901583;29;19931;-64
2023/02/21 12:50:42;;;;;;;;;;;15.00;99.90;;;;;;4894149;29;19987;-64
2023/02/21 12:53:28;;;;;;;;;;;15.00;99.90;;;;;;4898755;29;19927;-64
2023/02/21 12:55:59;;;;;;;;;;;15.00;99.90;;;;;;4894027;29;20401;-64
2023/02/21 12:58:42;;;;;;;;;;;15.00;99.90;;;;;;4885225;29;19932;-64
2023/02/21 13:01:16;;;;;;;;;;;15.00;99.90;;;;;;4900766;29;19931;-64
2023/02/21 13:04:07;;;;;;;;;;;15.10;99.90;;;;;;4899312;29;19979;-64
2023/02/21 13:07:06;;;;;;;;;;;15.10;99.40;;;;;;4906331;29;19952;-64
2023/02/21 13:09:42;;;;;;;;;;;15.20;99.80;;;;;;4896703;29;19978;-64
2023/02/21 13:12:24;;;;;;;;;;;15.20;99.00;;;;;;4882736;29;19931;-64
2023/02/21 13:15:14;;;;;;;;;;;15.20;99.30;;;;;;4904173;29;19950;-64
2023/02/21 13:17:51;;;;;;;;;;;15.30;99.10;;;;;;4898097;29;19956;-64
2023/02/21 13:20:19;;;;;;;;;;;15.30;99.10;;;;;;4900458;29;19927;-64
2023/02/21 13:26:29;;;;;;;;;;;15.40;98.70;;;;;;4901538;29;19955;-64
2023/02/21 13:29:01;;;;;;;;;;;15.50;98.80;;;;;;4898566;29;19931;-64
2023/02/21 13:31:37;;;;;;;;;;;15.60;98.00;;;;;;4908908;29;19927;-64
2023/02/21 13:34:17;;;;;;;;;;;15.60;97.80;;;;;;4893305;29;19928;-64
2023/02/21 13:36:45;;;;;;;;;;;15.70;97.80;;;;;;4902190;29;19967;-64
2023/02/21 13:39:20;;;;;;;;;;;15.70;97.40;;;;;;4906208;29;19984;-64
2023/02/21 13:41:57;;;;;;;;;;;15.70;97.40;;;;;;4889535;29;19927;-63
2023/02/21 13:44:29;;;;;;;;;;;15.80;98.40;;;;;;4902739;29;20018;-64
2023/02/21 13:47:04;;;;;;;;;;;15.80;98.40;;;;;;4901066;29;19932;-64
2023/02/21 13:49:42;;;;;;;;;;;15.90;97.80;;;;;;4902203;29;19927;-64
2023/02/21 13:52:23;;;;;;;;;;;15.90;97.80;;;;;;4885990;29;20011;-64
2023/02/21 13:55:13;;;;;;;;;;;15.90;97.40;;;;;;4906735;29;19987;-64
2023/02/21 13:57:47;;;;;;;;;;;16.00;97.60;;;;;;4894531;29;20419;-64
2023/02/21 14:00:23;;;;;;;;;;;15.90;96.50;;;;;;4902167;29;20034;-64
2023/02/21 14:02:58;;;;;;;;;;;15.90;96.80;;;;;;4899905;29;19932;-64
2023/02/21 14:05:42;;;;;;;;;;;15.90;97.90;;;;;;4896026;29;19931;-64
2023/02/21 14:08:28;;;;;;;;;;;15.90;97.20;;;;;;4907710;29;20004;-64
2023/02/21 14:11:11;;;;;;;;;;;16.00;98.50;;;;;;4904761;29;19927;-64
2023/02/21 14:14:01;;;;;;;;;;;16.00;98.20;;;;;;4897621;29;19938;-64
2023/02/21 14:16:45;;;;;;;;;;;16.00;97.80;;;;;;4906340;29;19978;-64
2023/02/21 14:19:21;;;;;;;;;;;16.00;97.00;;;;;;4893096;29;19935;-64
2023/02/21 14:22:02;;;;;;;;;;;16.00;97.40;;;;;;4900030;29;19986;-64
2023/02/21 14:24:35;;;;;;;;;;;16.00;97.30;;;;;;4900484;29;19957;-64
2023/02/21 14:27:10;;;;;;;;;;;16.00;97.80;;;;;;4894753;29;19931;-64
2023/02/21 14:29:42;;;;;;;;;;;16.00;98.10;;;;;;4904585;29;19927;-64
2023/02/21 14:32:21;;;;;;;;;;;16.00;98.20;;;;;;4904197;29;19959;-64
2023/02/21 14:34:55;;;;;;;;;;;16.00;97.30;;;;;;4889282;29;19928;-64
2023/02/21 14:37:31;;;;;;;;;;;16.10;97.30;;;;;;4896992;29;19970;-64
2023/02/21 14:40:09;;;;;;;;;;;16.10;97.40;;;;;;4903470;29;19956;-64
2023/02/21 14:43:01;;;;;;;;;;;16.10;96.70;;;;;;4898196;29;19928;-64
2023/02/21 14:45:42;;;;;;;;;;;16.10;97.70;;;;;;4914541;29;19932;-65
2023/02/21 14:48:14;;;;;;;;;;;16.00;96.20;;;;;;4901267;29;19934;-64
2023/02/21 14:50:52;;;;;;;;;;;16.00;96.70;;;;;;4888903;29;19982;-64
2023/02/21 14:53:18;;;;;;;;;;;16.10;96.30;;;;;;4909677;29;19927;-64
2023/02/21 14:56:04;;;;;;;;;;;16.00;96.20;;;;;;4905734;29;20418;-64
2023/02/21 14:58:55;;;;;;;;;;;16.10;97.30;;;;;;4892112;29;19986;-64
2023/02/21 15:01:42;;;;;;;;;;;16.10;95.80;;;;;;4902288;29;19931;-64
2023/02/21 15:04:21;;;;;;;;;;;16.10;96.00;;;;;;4899676;29;19958;-64
2023/02/21 15:06:58;;;;;;;;;;;16.20;95.90;;;;;;4897201;29;20456;-64
2023/02/21 15:09:25;;;;;;;;;;;16.20;96.50;;;;;;4904904;29;19931;-64
2023/02/21 15:11:57;;;;;;;;;;;16.20;95.90;;;;;;4896208;29;19983;-64
2023/02/21 15:14:32;;;;;;;;;;;16.20;95.50;;;;;;4900842;29;19931;-64
2023/02/21 15:17:12;;;;;;;;;;;16.20;96.20;;;;;;4903017;29;19927;-63
2023/02/21 15:19:44;;;;;;;;;;;16.20;95.80;;;;;;4910637;29;19931;-64
2023/02/21 15:22:20;;;;;;;;;;;16.30;96.10;;;;;;4892337;29;19928;-64
2023/02/21 15:24:56;;;;;;;;;;;16.30;96.00;;;;;;4900277;29;19969;-64
2023/02/21 15:27:28;;;;;;;;;;;16.30;95.10;;;;;;4899529;29;19939;-64
2023/02/21 15:30:07;;;;;;;;;;;16.40;95.40;;;;;;4897486;29;19931;-64
2023/02/21 15:32:38;;;;;;;;;;;16.40;95.20;;;;;;4906414;29;19928;-64
2023/02/21 15:35:14;;;;;;;;;;;16.50;96.90;;;;;;4882315;29;19963;-64
2023/02/21 15:37:46;;;;;;;;;;;16.50;99.90;;;;;;4902410;29;19927;-63
2023/02/21 15:40:21;;;;;;;;;;;16.40;99.90;;;;;;4900686;29;19967;-64
2023/02/21 15:42:54;;;;;;;;;;;16.30;99.90;;;;;;4903844;29;19936;-64
2023/02/21 15:45:29;;;;;;;;;;;16.20;99.90;;;;;;4911599;29;19959;-64
2023/02/21 15:48:02;;;;;;;;;;;16.00;99.90;;;;;;4901566;29;19982;-64
2023/02/21 15:50:42;;;;;;;;;;;15.80;99.90;;;;;;4895697;29;19935;-64
2023/02/21 15:53:20;;;;;;;;;;;15.80;99.90;;;;;;4896104;29;20029;-64
2023/02/21 15:55:52;;;;;;;;;;;15.90;99.90;;;;;;4888476;29;19935;-64
2023/02/21 15:58:25;;;;;;;;;;;15.90;99.90;;;;;;4909495;29;19983;-64
2023/02/21 16:01:06;;;;;;;;;;;15.70;99.90;;;;;;4904536;29;19983;-64
2023/02/21 16:03:35;;;;;;;;;;;15.80;99.90;;;;;;4904467;29;19934;-64
2023/02/21 16:06:10;;;;;;;;;;;15.80;99.90;;;;;;4898978;29;19939;-64
2023/02/21 16:08:50;;;;;;;;;;;15.60;99.90;;;;;;4893821;29;19931;-64
2023/02/21 16:11:22;;;;;;;;;;;15.50;99.90;;;;;;4903457;29;19938;-63
2023/02/21 16:13:54;;;;;;;;;;;15.20;99.90;;;;;;4903388;29;19931;-64
2023/02/21 16:16:25;;;;;;;;;;;15.00;99.90;;;;;;4910106;29;20391;-64
2023/02/21 16:18:57;;;;;;;;;;;14.90;99.90;;;;;;4907989;29;19927;-64
2023/02/21 16:21:29;;;;;;;;;;;14.70;99.90;;;;;;4901601;29;19927;-64
2023/02/21 16:24:15;;;;;;;;;;;14.40;99.90;;;;;;4893566;29;20397;-64
2023/02/21 16:27:00;;;;;;;;;;;14.00;99.90;;;;;;4916013;29;19927;-65
2023/02/21 16:29:32;;;;;;;;;;;13.50;99.90;;;;;;4905522;29;19931;-64
2023/02/21 16:32:04;;;;;;;;;;;13.10;99.90;;;;;;4897137;29;19932;-64
2023/02/21 16:34:36;;;;;;;;;;;12.70;99.90;;;;;;4900438;29;19927;-64
2023/02/21 16:37:10;;;;;;;;;;;12.30;99.90;;;;;;4900111;29;19976;-64
2023/02/21 16:39:41;;;;;;;;;;;12.10;99.90;;;;;;4903542;29;19927;-64
2023/02/21 16:42:13;;;;;;;;;;;11.90;99.90;;;;;;4905281;29;19928;-64
2023/02/21 16:44:47;;;;;;;;;;;11.70;99.90;;;;;;4901175;29;19938;-64
2023/02/21 16:47:20;;;;;;;;;;;11.60;99.90;;;;;;4901362;29;20015;-64
2023/02/21 16:49:52;;;;;;;;;;;11.50;99.90;;;;;;4907616;29;19934;-64
2023/02/21 16:52:24;;;;;;;;;;;11.40;99.90;;;;;;4896215;29;20016;-64
2023/02/21 16:54:58;;;;;;;;;;;11.30;99.90;;;;;;4901540;29;19983;-64
2023/02/21 16:57:29;;;;;;;;;;;11.20;99.90;;;;;;4889803;29;19983;-64
2023/02/21 17:00:01;;;;;;;;;;;11.10;99.90;;;;;;4907471;29;19956;-64
2023/02/21 17:02:32;;;;;;;;;;;10.90;99.90;;;;;;4900954;29;19938;-64
2023/02/21 17:05:04;;;;;;;;;;;10.80;99.90;;;;;;4904566;29;19931;-64
2023/02/21 17:07:31;;;;;;;;;;;10.70;99.90;;;;;;4899546;29;19963;-64
2023/02/21 17:10:03;;;;;;;;;;;10.50;99.90;;;;;;4898483;29;20360;-64
2023/02/21 17:12:34;;;;;;;;;;;10.30;99.90;;;;;;4908887;29;19978;-64
2023/02/21 17:15:07;;;;;;;;;;;10.30;99.90;;;;;;4895424;29;19935;-64
2023/02/21 17:17:39;;;;;;;;;;;10.20;99.90;;;;;;4900996;29;20441;-64
2023/02/21 17:20:13;;;;;;;;;;;10.10;99.90;;;;;;4901055;29;19931;-63
2023/02/21 17:22:47;;;;;;;;;;;10.00;99.90;;;;;;4894827;29;19931;-64